Time;durP1;ratioP1;P1;durP2;ratioP2;P2;SDS_P1;SDS_P2;PMS_P1;PMS_P2;Temp;Humidity;BMP_temperature;BMP_pressure;BME280_temperature;BME280_humidity;BME280_pressure;Samples;Min_cycle;Max_cycle;Signal;HPM_P1;HPM_P2
2023/06/14 00:00:46;;;;;;;6.22;5.63;;;20.50;46.30;;;;;;5024512;28;20605;-45
2023/06/14 00:03:17;;;;;;;6.40;5.80;;;20.50;46.30;;;;;;5029422;28;20045;-48
2023/06/14 00:05:46;;;;;;;5.18;4.68;;;20.40;46.20;;;;;;5027804;28;20106;-49
2023/06/14 00:08:14;;;;;;;6.18;5.57;;;20.40;46.40;;;;;;5021402;28;20446;-49
2023/06/14 00:10:41;;;;;;;5.43;4.93;;;20.30;46.40;;;;;;5011848;28;20498;-49
2023/06/14 00:13:11;;;;;;;6.97;5.22;;;20.30;46.50;;;;;;5021336;28;20044;-46
2023/06/14 00:15:40;;;;;;;6.07;5.53;;;20.30;46.80;;;;;;5020943;28;20083;-45
2023/06/14 00:18:11;;;;;;;7.05;5.90;;;20.20;46.70;;;;;;5021537;28;20037;-47
2023/06/14 00:20:43;;;;;;;6.63;5.28;;;20.20;46.90;;;;;;5028804;28;20047;-49
2023/06/14 00:23:13;;;;;;;5.70;5.07;;;20.10;46.80;;;;;;5020463;28;20072;-48
2023/06/14 00:25:39;;;;;;;5.25;4.85;;;20.10;46.70;;;;;;5023309;28;20089;-49
2023/06/14 00:28:07;;;;;;;7.57;5.55;;;20.00;46.80;;;;;;5020876;28;20566;-48
2023/06/14 00:30:39;;;;;;;6.00;5.43;;;20.00;46.90;;;;;;5029258;28;20033;-47
2023/06/14 00:33:05;;;;;;;7.07;5.57;;;20.00;47.20;;;;;;5026594;28;20052;-49
2023/06/14 00:35:32;;;;;;;6.72;5.60;;;19.90;46.90;;;;;;5013644;28;20038;-46
2023/06/14 00:38:03;;;;;;;7.65;6.18;;;19.90;47.10;;;;;;5028444;28;20038;-47
2023/06/14 00:40:30;;;;;;;9.35;6.15;;;19.80;47.20;;;;;;5011522;28;20041;-45
2023/06/14 00:42:57;;;;;;;6.18;5.57;;;19.80;47.40;;;;;;5013518;28;20129;-47
2023/06/14 00:45:28;;;;;;;6.30;5.70;;;19.70;47.50;;;;;;5002778;28;20050;-48
2023/06/14 00:47:55;;;;;;;5.63;5.13;;;19.70;47.50;;;;;;5009552;28;20136;-49
2023/06/14 00:50:23;;;;;;;5.82;5.20;;;19.70;47.50;;;;;;5004439;28;20055;-46
2023/06/14 00:52:52;;;;;;;5.32;4.93;;;19.60;47.50;;;;;;5018484;28;20046;-47
2023/06/14 00:55:21;;;;;;;5.93;5.35;;;19.60;47.40;;;;;;5008926;28;20126;-45
2023/06/14 00:57:49;;;;;;;6.43;5.82;;;19.50;47.50;;;;;;5027570;28;20592;-49
2023/06/14 01:00:18;;;;;;;6.72;6.00;;;19.50;47.70;;;;;;5003413;28;20069;-49
2023/06/14 01:02:47;;;;;;;6.53;5.85;;;19.40;47.70;;;;;;5030018;28;20033;-47
2023/06/14 01:05:14;;;;;;;8.43;5.97;;;19.40;47.60;;;;;;5014633;28;20045;-49
2023/06/14 01:08:05;;;;;;;6.45;5.85;;;19.30;47.80;;;;;;5009262;28;20048;-49
2023/06/14 01:10:39;;;;;;;5.85;5.35;;;19.30;48.40;;;;;;5028469;28;20052;-50
2023/06/14 01:13:17;;;;;;;6.45;5.72;;;19.30;47.90;;;;;;5032522;28;20095;-49
2023/06/14 01:15:45;;;;;;;6.22;5.68;;;19.20;48.20;;;;;;5032638;28;20029;-48
2023/06/14 01:18:19;;;;;;;5.53;5.13;;;19.10;47.80;;;;;;5013817;28;20040;-49
2023/06/14 01:20:50;;;;;;;8.02;6.53;;;19.10;47.90;;;;;;5031985;28;20652;-49
2023/06/14 01:23:21;;;;;;;6.13;5.53;;;19.10;48.00;;;;;;5029591;28;20045;-50
2023/06/14 01:25:53;;;;;;;5.68;5.18;;;19.00;48.00;;;;;;5030556;28;20761;-50
2023/06/14 01:28:23;;;;;;;6.07;5.57;;;18.90;48.10;;;;;;5014368;28;20045;-48
2023/06/14 01:30:56;;;;;;;6.05;5.45;;;18.90;48.10;;;;;;5032324;28;20129;-49
2023/06/14 01:33:27;;;;;;;6.07;5.50;;;18.90;48.40;;;;;;5029542;28;20070;-49
2023/06/14 01:36:01;;;;;;;6.13;5.63;;;18.90;48.90;;;;;;5030929;28;20104;-47
2023/06/14 01:38:36;;;;;;;6.63;5.50;;;18.80;48.70;;;;;;5031781;28;20053;-47
2023/06/14 01:41:09;;;;;;;5.60;5.10;;;18.80;48.70;;;;;;5029539;28;20095;-48
2023/06/14 01:43:39;;;;;;;6.30;5.72;;;18.70;48.50;;;;;;5027354;28;20048;-48
2023/06/14 01:46:10;;;;;;;6.28;5.55;;;18.70;48.60;;;;;;5014244;28;20472;-45
2023/06/14 01:48:40;;;;;;;6.45;5.85;;;18.60;48.60;;;;;;5031569;28;20554;-49
2023/06/14 01:51:07;;;;;;;6.68;5.97;;;18.60;48.80;;;;;;5019201;28;20096;-45
2023/06/14 01:53:36;;;;;;;7.03;6.32;;;18.60;48.90;;;;;;5011210;28;20569;-46
2023/06/14 01:56:10;;;;;;;7.75;6.50;;;18.50;49.00;;;;;;5031951;28;20397;-45
2023/06/14 01:58:46;;;;;;;6.57;5.97;;;18.50;49.20;;;;;;5007351;28;20042;-46
2023/06/14 02:01:15;;;;;;;8.93;7.28;;;18.50;49.00;;;;;;5014384;28;20096;-46
2023/06/14 02:03:44;;;;;;;7.40;5.87;;;18.40;49.10;;;;;;5013504;28;20045;-47
2023/06/14 02:06:18;;;;;;;8.15;5.90;;;18.40;49.10;;;;;;5010663;28;20486;-48
2023/06/14 02:08:49;;;;;;;6.55;5.75;;;18.30;49.10;;;;;;5028136;28;20037;-44
2023/06/14 02:11:23;;;;;;;6.88;5.75;;;18.30;49.10;;;;;;5031514;28;20573;-49
2023/06/14 02:13:50;;;;;;;7.03;6.32;;;18.30;49.40;;;;;;5030807;28;20104;-48
2023/06/14 02:16:17;;;;;;;6.88;6.20;;;18.20;49.20;;;;;;5013435;28;20131;-47
2023/06/14 02:18:43;;;;;;;5.65;5.15;;;18.20;49.20;;;;;;5012502;28;20041;-46
2023/06/14 02:21:10;;;;;;;5.82;5.30;;;18.20;49.40;;;;;;5013521;28;20034;-47
2023/06/14 02:23:37;;;;;;;6.05;5.50;;;18.20;49.50;;;;;;5008831;28;20145;-49
2023/06/14 02:26:06;;;;;;;6.53;5.28;;;18.10;49.50;;;;;;5012955;28;20041;-46
2023/06/14 02:28:35;;;;;;;6.05;5.43;;;18.10;49.40;;;;;;5030191;28;20033;-48
2023/06/14 02:31:04;;;;;;;6.65;6.05;;;18.00;49.40;;;;;;5013176;28;20050;-49
2023/06/14 02:33:31;;;;;;;6.50;5.90;;;18.00;49.60;;;;;;5026170;28;20136;-48
2023/06/14 02:35:58;;;;;;;6.18;5.68;;;18.00;49.50;;;;;;5031474;28;20041;-47
2023/06/14 02:38:25;;;;;;;6.82;6.22;;;17.90;49.60;;;;;;5030822;28;20044;-49
2023/06/14 02:40:51;;;;;;;6.10;5.50;;;17.90;49.80;;;;;;5012686;28;20579;-46
2023/06/14 02:43:23;;;;;;;6.95;6.22;;;17.90;49.70;;;;;;5033301;28;20386;-48
2023/06/14 02:45:52;;;;;;;6.43;5.78;;;17.90;50.00;;;;;;5014991;28;20053;-44
2023/06/14 02:48:20;;;;;;;7.32;6.35;;;17.80;49.80;;;;;;5012440;28;20421;-49
2023/06/14 02:50:47;;;;;;;6.53;5.88;;;17.80;49.80;;;;;;5026514;28;20490;-49
2023/06/14 02:53:15;;;;;;;6.55;5.95;;;17.80;49.80;;;;;;5010462;28;20541;-48
2023/06/14 02:55:46;;;;;;;6.35;5.80;;;17.70;49.80;;;;;;5007860;28;20128;-49
2023/06/14 02:58:19;;;;;;;6.78;6.07;;;17.70;49.70;;;;;;5009161;28;20128;-46
2023/06/14 03:00:45;;;;;;;7.05;6.20;;;17.70;49.90;;;;;;5030382;28;20517;-45
2023/06/14 03:03:17;;;;;;;7.40;5.90;;;17.60;49.90;;;;;;5012991;28;20156;-46
2023/06/14 03:05:53;;;;;;;6.72;6.03;;;17.60;50.10;;;;;;5013543;28;20045;-46
2023/06/14 03:08:28;;;;;;;6.53;5.90;;;17.50;50.00;;;;;;5011979;28;20456;-46
2023/06/14 03:10:58;;;;;;;8.25;6.20;;;17.50;50.10;;;;;;5012535;28;20056;-47
2023/06/14 03:13:32;;;;;;;6.82;6.13;;;17.40;50.20;;;;;;5012671;28;20065;-46
2023/06/14 03:16:00;;;;;;;8.35;5.82;;;17.40;50.40;;;;;;5011960;28;20050;-45
2023/06/14 03:18:35;;;;;;;6.53;5.93;;;17.40;50.30;;;;;;5012196;28;20041;-47
2023/06/14 03:21:06;;;;;;;6.68;5.75;;;17.40;50.40;;;;;;5012673;28;20041;-48
2023/06/14 03:23:37;;;;;;;7.05;5.85;;;17.30;50.60;;;;;;5010232;28;20049;-45
2023/06/14 03:26:05;;;;;;;7.47;6.78;;;17.30;50.70;;;;;;5012561;28;20045;-45
2023/06/14 03:28:32;;;;;;;6.63;5.93;;;17.30;50.90;;;;;;5030297;28;20128;-45
2023/06/14 03:30:59;;;;;;;6.32;5.78;;;17.30;50.90;;;;;;5010077;28;20057;-46
2023/06/14 03:33:30;;;;;;;7.63;6.18;;;17.20;51.00;;;;;;5011661;28;20125;-45
2023/06/14 03:35:59;;;;;;;5.97;5.43;;;17.20;51.10;;;;;;5013287;28;20071;-46
2023/06/14 03:38:31;;;;;;;8.65;6.10;;;17.20;51.10;;;;;;5013286;28;20046;-45
2023/06/14 03:40:58;;;;;;;7.07;6.22;;;17.30;51.20;;;;;;5011120;28;20041;-45
2023/06/14 03:43:25;;;;;;;7.55;5.60;;;17.20;51.20;;;;;;5029905;28;20037;-45
2023/06/14 03:45:54;;;;;;;6.43;5.85;;;17.20;51.40;;;;;;5012289;28;20037;-45
2023/06/14 03:48:24;;;;;;;6.25;5.70;;;17.20;51.40;;;;;;5010157;28;20402;-45
2023/06/14 03:50:54;;;;;;;14.57;6.38;;;17.20;51.40;;;;;;5012385;28;20143;-46
2023/06/14 03:53:28;;;;;;;6.57;5.90;;;17.20;51.60;;;;;;5019785;23;20058;-46
2023/06/14 03:55:59;;;;;;;;;;;17.20;51.90;;;;;;4993075;28;20041;-48
2023/06/14 03:58:36;;;;;;;5.80;5.25;;;17.20;51.20;;;;;;4986394;28;19922;-46
2023/06/14 04:01:03;;;;;;;6.93;5.72;;;17.20;51.20;;;;;;4992374;28;20129;-47
2023/06/14 04:03:31;;;;;;;8.35;7.65;;;17.20;51.60;;;;;;4992472;28;20192;-46
2023/06/14 04:06:01;;;;;;;6.47;5.72;;;17.20;51.90;;;;;;4992747;28;20045;-46
2023/06/14 04:08:28;;;;;;;9.38;7.13;;;17.10;52.20;;;;;;5004876;28;20092;-48
2023/06/14 04:10:57;;;;;;;6.75;6.15;;;17.20;52.30;;;;;;4992555;28;20057;-50
2023/06/14 04:13:24;;;;;;;6.43;5.90;;;17.20;52.30;;;;;;5009968;28;20042;-47
2023/06/14 04:15:56;;;;;;;7.00;6.10;;;17.20;52.50;;;;;;4993033;28;20132;-46
2023/06/14 04:18:28;;;;;;;6.32;5.75;;;17.20;52.80;;;;;;4989978;28;20038;-47
2023/06/14 04:20:57;;;;;;;7.05;6.18;;;17.20;52.90;;;;;;4984498;28;20069;-46
2023/06/14 04:23:23;;;;;;;6.72;6.03;;;17.20;53.10;;;;;;4983335;28;20926;-46
2023/06/14 04:25:50;;;;;;;10.07;6.10;;;17.20;53.30;;;;;;5009657;28;20450;-50
2023/06/14 04:28:18;;;;;;;8.65;5.97;;;17.30;53.60;;;;;;4992063;28;20778;-48
2023/06/14 04:30:47;;;;;;;8.00;7.28;;;17.30;53.80;;;;;;4987741;28;20060;-48
2023/06/14 04:33:15;;;;;;;6.57;5.93;;;17.30;53.90;;;;;;4989171;28;20424;-49
2023/06/14 04:35:42;;;;;;;7.32;6.72;;;17.40;54.20;;;;;;5003568;28;20371;-49
2023/06/14 04:38:09;;;;;;;8.07;6.78;;;17.40;54.30;;;;;;5006339;28;20613;-47
2023/06/14 04:40:42;;;;;;;7.63;6.88;;;17.40;54.40;;;;;;5015027;28;20042;-47
2023/06/14 04:43:17;;;;;;;6.90;6.00;;;17.50;54.60;;;;;;4982998;28;20487;-48
2023/06/14 04:45:46;;;;;;;7.13;6.43;;;17.50;54.90;;;;;;4991721;28;20092;-50
2023/06/14 04:48:13;;;;;;;8.07;6.50;;;17.60;55.00;;;;;;4995396;28;20048;-47
2023/06/14 04:50:40;;;;;;;7.35;6.63;;;17.70;55.20;;;;;;5000329;28;20512;-46
2023/06/14 04:53:08;;;;;;;7.45;6.60;;;17.70;55.40;;;;;;4982980;28;20513;-46
2023/06/14 04:55:35;;;;;;;6.93;6.22;;;17.70;55.50;;;;;;4985357;28;20577;-45
2023/06/14 04:58:03;;;;;;;7.43;6.43;;;17.80;55.70;;;;;;4994070;28;20042;-46
2023/06/14 05:00:30;;;;;;;7.60;6.90;;;17.90;55.80;;;;;;4995033;28;20506;-47
2023/06/14 05:02:57;;;;;;;7.20;6.50;;;17.90;56.00;;;;;;4990696;28;20046;-46
2023/06/14 05:05:24;;;;;;;8.10;7.30;;;18.00;56.10;;;;;;4994595;28;20049;-50
2023/06/14 05:07:51;;;;;;;8.38;7.25;;;18.00;56.20;;;;;;4992533;28;20119;-50
2023/06/14 05:10:18;;;;;;;9.00;6.85;;;18.10;56.30;;;;;;4991678;28;20425;-46
2023/06/14 05:12:47;;;;;;;7.75;6.75;;;18.20;56.40;;;;;;4991528;28;20050;-47
2023/06/14 05:15:17;;;;;;;9.57;7.00;;;18.20;56.40;;;;;;4992586;28;20098;-49
2023/06/14 05:17:52;;;;;;;7.75;6.80;;;18.30;56.40;;;;;;5005885;28;20126;-50
2023/06/14 05:20:19;;;;;;;8.27;7.18;;;18.40;56.70;;;;;;5011749;28;20040;-50
2023/06/14 05:22:46;;;;;;;9.50;7.07;;;18.50;56.20;;;;;;5011168;28;20037;-50
2023/06/14 05:25:12;;;;;;;6.97;6.22;;;18.50;55.80;;;;;;5008130;28;20042;-47
2023/06/14 05:27:41;;;;;;;6.93;6.10;;;18.60;55.60;;;;;;5011900;28;20046;-46
2023/06/14 05:30:09;;;;;;;6.90;5.65;;;18.70;55.10;;;;;;5011684;28;20042;-47
2023/06/14 05:32:35;;;;;;;6.75;5.60;;;18.80;54.50;;;;;;5001415;28;20050;-47
2023/06/14 05:35:02;;;;;;;5.90;5.30;;;18.90;53.80;;;;;;5014085;28;20058;-47
2023/06/14 05:37:32;;;;;;;6.40;5.80;;;19.00;53.60;;;;;;5011395;28;20076;-46
2023/06/14 05:39:58;;;;;;;6.25;4.97;;;19.10;53.00;;;;;;5008551;28;20042;-47
2023/06/14 05:42:25;;;;;;;6.20;5.60;;;19.20;52.50;;;;;;5004851;28;20052;-50
2023/06/14 05:44:52;;;;;;;6.30;4.93;;;19.30;52.20;;;;;;5011303;28;20145;-47
2023/06/14 05:47:18;;;;;;;7.00;5.75;;;19.40;51.90;;;;;;5011033;28;20594;-47
2023/06/14 05:49:45;;;;;;;5.40;4.85;;;19.50;51.80;;;;;;5007904;28;20098;-48
2023/06/14 05:52:12;;;;;;;6.30;5.15;;;19.60;51.40;;;;;;5004435;28;20054;-48
2023/06/14 05:54:39;;;;;;;6.45;4.78;;;19.70;51.70;;;;;;5007708;28;20458;-47
2023/06/14 05:57:06;;;;;;;11.90;4.75;;;19.80;50.50;;;;;;4993350;28;20525;-47
2023/06/14 05:59:33;;;;;;;8.57;4.90;;;19.90;50.60;;;;;;5010988;28;20050;-46
2023/06/14 06:02:00;;;;;;;5.15;4.47;;;20.00;50.50;;;;;;5011288;28;20065;-49
2023/06/14 06:04:27;;;;;;;5.13;4.63;;;20.10;49.90;;;;;;5006034;28;20050;-50
2023/06/14 06:06:54;;;;;;;9.38;5.43;;;20.20;49.20;;;;;;5011646;28;20645;-46
2023/06/14 06:09:21;;;;;;;5.85;4.38;;;20.30;48.80;;;;;;5006671;28;20046;-46
2023/06/14 06:11:47;;;;;;;5.43;4.38;;;20.40;48.80;;;;;;5010546;28;20041;-49
2023/06/14 06:14:18;;;;;;;4.25;3.85;;;20.40;48.30;;;;;;5012157;28;20034;-47
2023/06/14 06:16:45;;;;;;;6.63;4.65;;;20.50;48.00;;;;;;5011977;28;20057;-50
2023/06/14 06:19:12;;;;;;;6.07;4.47;;;20.60;47.60;;;;;;5007967;28;20042;-50
2023/06/14 06:21:41;;;;;;;7.13;4.15;;;20.70;47.20;;;;;;5011776;28;20030;-51
2023/06/14 06:24:08;;;;;;;4.35;4.03;;;20.70;46.50;;;;;;5007563;28;20052;-50
2023/06/14 06:26:35;;;;;;;6.75;4.38;;;20.80;46.90;;;;;;5011624;28;20046;-48
2023/06/14 06:29:02;;;;;;;7.70;4.13;;;20.90;46.60;;;;;;5011318;28;20053;-50
2023/06/14 06:31:28;;;;;;;4.85;4.32;;;21.00;46.20;;;;;;4994219;28;20042;-50
2023/06/14 06:33:55;;;;;;;4.72;4.20;;;21.00;46.00;;;;;;5006747;28;20043;-51
2023/06/14 06:36:22;;;;;;;4.93;4.07;;;21.10;46.10;;;;;;5002520;28;20487;-51
2023/06/14 06:38:49;;;;;;;6.18;4.47;;;21.20;45.90;;;;;;5003047;28;20034;-51
2023/06/14 06:41:15;;;;;;;5.30;4.07;;;21.20;45.70;;;;;;5004223;28;20523;-50
2023/06/14 06:43:42;;;;;;;5.35;3.88;;;21.30;45.50;;;;;;5004820;28;20037;-49
2023/06/14 06:46:09;;;;;;;5.00;3.83;;;21.30;45.30;;;;;;5001848;28;20152;-48
2023/06/14 06:48:36;;;;;;;5.78;4.40;;;21.40;45.20;;;;;;5011481;28;20046;-50
2023/06/14 06:51:02;;;;;;;4.97;3.63;;;21.40;44.90;;;;;;5008429;28;20096;-50
2023/06/14 06:53:29;;;;;;;6.05;4.07;;;21.50;45.00;;;;;;5002528;28;20093;-50
2023/06/14 06:56:07;;;;;;;4.45;4.05;;;21.50;44.70;;;;;;5010123;28;20057;-49
2023/06/14 06:58:34;;;;;;;5.60;3.88;;;21.60;44.70;;;;;;5011203;28;20496;-51
2023/06/14 07:01:00;;;;;;;6.10;3.90;;;21.70;44.40;;;;;;5010692;28;20442;-50
2023/06/14 07:03:27;;;;;;;4.38;3.97;;;21.70;44.60;;;;;;5008229;28;20072;-48
2023/06/14 07:05:54;;;;;;;4.25;3.80;;;21.80;44.50;;;;;;5008156;28;20137;-47
2023/06/14 07:08:20;;;;;;;5.07;3.90;;;21.80;44.60;;;;;;4989279;28;20069;-49
2023/06/14 07:10:47;;;;;;;7.32;4.25;;;21.90;44.30;;;;;;5008694;28;20045;-51
2023/06/14 07:13:14;;;;;;;8.82;4.70;;;22.00;44.10;;;;;;5011322;28;20088;-50
2023/06/14 07:15:41;;;;;;;4.60;4.20;;;22.00;43.40;;;;;;5010111;28;20380;-50
2023/06/14 07:18:08;;;;;;;5.38;3.80;;;22.10;43.50;;;;;;5005672;28;20054;-48
2023/06/14 07:20:38;;;;;;;6.00;3.47;;;22.10;43.00;;;;;;5010174;28;20544;-51
2023/06/14 07:23:05;;;;;;;5.35;3.92;;;22.20;42.80;;;;;;5010237;28;20137;-50
2023/06/14 07:25:32;;;;;;;4.75;3.58;;;22.20;42.90;;;;;;5004934;28;20042;-51
2023/06/14 07:27:59;;;;;;;6.18;3.95;;;22.30;42.70;;;;;;5005370;28;20461;-48
2023/06/14 07:30:26;;;;;;;4.45;3.42;;;22.30;42.80;;;;;;5002042;28;20557;-50
2023/06/14 07:32:54;;;;;;;4.40;4.03;;;22.40;42.70;;;;;;5010144;28;20079;-50
2023/06/14 07:35:21;;;;;;;7.05;3.45;;;22.50;42.70;;;;;;4992048;28;20053;-49
2023/06/14 07:37:48;;;;;;;7.50;4.20;;;22.50;42.30;;;;;;5004747;28;20097;-46
2023/06/14 07:40:14;;;;;;;4.13;3.78;;;22.60;42.50;;;;;;4989295;28;20065;-47
2023/06/14 07:42:41;;;;;;;5.07;3.63;;;22.60;42.10;;;;;;5007273;28;20084;-51
2023/06/14 07:45:09;;;;;;;4.82;3.00;;;22.60;42.10;;;;;;5010247;28;20557;-50
2023/06/14 07:47:36;;;;;;;3.60;3.30;;;22.70;42.00;;;;;;5002700;28;20044;-48
2023/06/14 07:50:03;;;;;;;4.15;3.38;;;22.70;41.80;;;;;;5008208;28;20050;-49
2023/06/14 07:52:31;;;;;;;5.93;4.40;;;22.80;42.10;;;;;;4993011;28;20137;-50
2023/06/14 07:55:00;;;;;;;3.47;3.17;;;22.80;42.30;;;;;;5005781;28;20092;-49
2023/06/14 07:57:26;;;;;;;6.25;3.50;;;22.90;41.70;;;;;;5010540;28;20062;-50
2023/06/14 07:59:53;;;;;;;4.22;3.15;;;22.90;41.50;;;;;;5008269;28;20037;-51
2023/06/14 08:02:23;;;;;;;3.15;2.75;;;23.00;41.50;;;;;;4998337;28;20104;-49
2023/06/14 08:04:49;;;;;;;7.93;2.90;;;23.10;41.30;;;;;;5008807;28;20073;-48
2023/06/14 08:07:16;;;;;;;5.22;2.90;;;23.10;41.10;;;;;;4973592;28;20066;-46
2023/06/14 08:09:43;;;;;;;6.35;3.33;;;23.20;41.10;;;;;;5006142;28;20072;-50
2023/06/14 08:12:10;;;;;;;3.58;2.55;;;23.20;40.90;;;;;;4998948;28;20459;-46
2023/06/14 08:14:37;;;;;;;5.82;2.55;;;23.30;40.80;;;;;;5009120;28;20092;-50
2023/06/14 08:17:04;;;;;;;3.97;2.90;;;23.30;40.50;;;;;;5006647;28;20053;-49
2023/06/14 08:19:31;;;;;;;3.95;2.50;;;23.40;40.40;;;;;;5001716;28;20037;-47
2023/06/14 08:21:58;;;;;;;3.47;2.17;;;23.40;40.00;;;;;;5009937;28;20044;-51
2023/06/14 08:24:24;;;;;;;2.70;2.03;;;23.50;39.80;;;;;;5005528;28;20052;-46
2023/06/14 08:26:51;;;;;;;2.50;2.08;;;23.50;40.00;;;;;;5009835;28;20125;-48
2023/06/14 08:29:18;;;;;;;3.88;2.72;;;23.50;39.50;;;;;;5009167;28;20070;-48
2023/06/14 08:31:45;;;;;;;4.10;2.28;;;23.60;39.70;;;;;;5009608;28;20565;-50
2023/06/14 08:34:12;;;;;;;3.28;1.90;;;23.60;39.40;;;;;;5004546;28;20046;-47
2023/06/14 08:36:41;;;;;;;3.15;1.90;;;23.70;39.10;;;;;;5004268;28;20115;-47
2023/06/14 08:39:08;;;;;;;2.17;1.70;;;23.70;38.80;;;;;;4998619;28;20037;-49
2023/06/14 08:41:35;;;;;;;1.92;1.60;;;23.80;37.70;;;;;;5008313;28;20042;-47
2023/06/14 08:44:06;;;;;;;1.75;1.63;;;23.80;37.50;;;;;;5005979;28;20555;-50
2023/06/14 08:46:34;;;;;;;2.17;1.50;;;23.90;37.10;;;;;;5004367;28;20140;-50
2023/06/14 08:49:04;;;;;;;1.60;1.50;;;24.00;37.40;;;;;;5007418;28;20038;-47
2023/06/14 08:51:33;;;;;;;2.28;1.25;;;24.00;36.40;;;;;;5005873;28;20716;-47
2023/06/14 08:54:01;;;;;;;2.53;1.30;;;24.10;35.50;;;;;;4997552;28;20117;-47
2023/06/14 08:56:29;;;;;;;2.53;1.25;;;24.10;35.00;;;;;;5004313;28;20427;-46
2023/06/14 08:59:03;;;;;;;2.22;1.17;;;24.20;35.00;;;;;;5002749;28;20042;-47
2023/06/14 09:01:34;;;;;;;1.85;1.27;;;24.20;34.60;;;;;;5000525;28;20045;-49
2023/06/14 09:04:02;;;;;;;2.25;1.40;;;24.20;34.10;;;;;;5003685;28;20401;-50
2023/06/14 09:06:29;;;;;;;1.30;1.20;;;24.30;34.30;;;;;;4999865;28;20048;-48
2023/06/14 09:08:59;;;;;;;1.50;1.25;;;24.30;34.80;;;;;;5000567;28;20046;-49
2023/06/14 09:11:26;;;;;;;2.67;1.40;;;24.40;34.10;;;;;;4998716;28;20506;-50
2023/06/14 09:13:53;;;;;;;1.30;1.20;;;24.40;34.10;;;;;;4985000;28;20104;-50
2023/06/14 09:16:22;;;;;;;3.58;1.52;;;24.40;34.10;;;;;;5009006;28;20121;-47
2023/06/14 09:18:50;;;;;;;3.13;1.48;;;24.50;34.10;;;;;;5004250;28;20037;-50
2023/06/14 09:21:17;;;;;;;1.48;1.05;;;24.50;33.50;;;;;;5007751;28;20117;-48
2023/06/14 09:23:46;;;;;;;1.67;1.58;;;24.50;33.20;;;;;;5004246;28;20096;-50
2023/06/14 09:26:17;;;;;;;3.80;1.33;;;24.60;33.50;;;;;;5012377;28;20048;-46
2023/06/14 09:28:45;;;;;;;1.75;1.40;;;24.60;33.40;;;;;;5009103;28;20718;-47
2023/06/14 09:31:18;;;;;;;3.67;1.50;;;24.70;33.60;;;;;;5004723;28;20037;-51
2023/06/14 09:33:47;;;;;;;1.38;1.00;;;24.70;33.30;;;;;;5006464;28;20041;-50
2023/06/14 09:36:17;;;;;;;2.63;1.20;;;24.70;32.90;;;;;;4987313;28;20041;-49
2023/06/14 09:39:07;;;;;;;1.08;1.05;;;24.80;33.00;;;;;;5003032;28;20411;-49
2023/06/14 09:41:40;;;;;;;1.33;1.23;;;24.90;32.80;;;;;;5003341;28;20120;-49
2023/06/14 09:44:09;;;;;;;1.50;1.27;;;24.90;33.30;;;;;;5011374;28;20045;-45
2023/06/14 09:46:41;;;;;;;3.00;1.58;;;24.90;33.20;;;;;;5012672;28;20038;-51
2023/06/14 09:49:08;;;;;;;1.40;1.10;;;24.90;33.30;;;;;;5012403;28;20050;-49
2023/06/14 09:51:43;;;;;;;1.60;1.50;;;25.00;33.10;;;;;;5004234;28;20443;-48
2023/06/14 09:54:15;;;;;;;2.08;1.20;;;25.00;33.50;;;;;;5006598;28;20560;-51
2023/06/14 09:56:45;;;;;;;1.50;1.40;;;25.10;33.70;;;;;;5012509;28;20080;-49
2023/06/14 09:59:13;;;;;;;1.75;1.52;;;25.10;32.90;;;;;;5012506;28;20053;-50
2023/06/14 10:01:42;;;;;;;1.58;1.48;;;25.10;33.10;;;;;;5009907;28;20066;-49
2023/06/14 10:04:11;;;;;;;1.90;1.70;;;25.20;32.90;;;;;;5007077;28;20042;-49
2023/06/14 10:06:41;;;;;;;1.75;1.63;;;25.20;33.60;;;;;;5011818;28;20037;-51
2023/06/14 10:09:10;;;;;;;2.15;1.55;;;25.30;33.10;;;;;;5008835;28;20165;-46
2023/06/14 10:11:43;;;;;;;1.83;1.65;;;25.30;33.00;;;;;;5002877;28;20065;-48
2023/06/14 10:14:11;;;;;;;1.77;1.40;;;25.30;33.00;;;;;;5010638;28;20515;-51
2023/06/14 10:17:04;;;;;;;2.00;1.38;;;25.30;33.20;;;;;;5010529;28;20048;-48
2023/06/14 10:19:42;;;;;;;1.75;1.60;;;25.40;33.00;;;;;;5007168;28;20581;-47
2023/06/14 10:22:26;;;;;;;2.25;1.52;;;25.40;33.00;;;;;;5010230;28;20104;-49
2023/06/14 10:24:52;;;;;;;2.03;1.52;;;25.40;33.00;;;;;;5005613;28;20053;-48
2023/06/14 10:27:23;;;;;;;2.38;1.45;;;25.50;33.40;;;;;;5011464;28;20129;-48
2023/06/14 10:29:53;;;;;;;5.00;1.42;;;25.50;33.10;;;;;;5010795;28;20045;-49
2023/06/14 10:32:24;;;;;;;3.97;1.85;;;25.60;33.30;;;;;;5000253;28;20038;-47
2023/06/14 10:35:05;;;;;;;1.97;1.60;;;25.60;33.50;;;;;;5011216;28;20580;-48
2023/06/14 10:37:32;;;;;;;8.25;2.13;;;25.60;33.90;;;;;;5008384;28;20067;-47
2023/06/14 10:39:59;;;;;;;2.35;1.92;;;25.60;33.60;;;;;;5007904;28;20116;-48
2023/06/14 10:42:32;;;;;;;3.25;1.90;;;25.60;33.20;;;;;;5003371;28;20457;-46
2023/06/14 10:45:00;;;;;;;2.85;1.73;;;25.70;33.60;;;;;;5007216;28;20049;-49
2023/06/14 10:47:37;;;;;;;1.65;1.48;;;25.70;33.30;;;;;;5010743;28;20077;-47
2023/06/14 10:50:08;;;;;;;3.90;2.20;;;25.70;33.50;;;;;;5010953;28;20045;-50
2023/06/14 10:52:41;;;;;;;5.82;2.60;;;25.80;34.20;;;;;;5006276;28;20042;-49
2023/06/14 10:55:14;;;;;;;3.80;2.35;;;25.80;33.60;;;;;;5007512;28;20068;-49
2023/06/14 10:57:45;;;;;;;4.85;1.65;;;25.80;34.00;;;;;;5002551;28;20053;-48
2023/06/14 11:00:25;;;;;;;2.10;1.90;;;25.80;34.40;;;;;;5011422;28;20042;-51
2023/06/14 11:03:21;;;;;;;1.90;1.80;;;25.90;34.20;;;;;;5009538;28;20041;-49
2023/06/14 11:05:48;;;;;;;2.42;1.83;;;26.00;34.20;;;;;;5006900;28;20139;-49
2023/06/14 11:08:33;;;;;;;3.53;2.22;;;26.00;34.20;;;;;;5009924;28;20048;-50
2023/06/14 11:11:06;;;;;;;1.80;1.70;;;26.00;33.80;;;;;;5011318;28;20061;-50
2023/06/14 11:13:32;;;;;;;2.13;1.90;;;26.10;33.80;;;;;;5004565;28;20046;-49
2023/06/14 11:15:59;;;;;;;2.17;1.50;;;26.10;33.40;;;;;;5002059;28;20081;-50
2023/06/14 11:18:28;;;;;;;3.05;2.03;;;26.10;33.20;;;;;;5009438;28;20441;-51
2023/06/14 11:20:55;;;;;;;2.25;1.98;;;26.20;33.00;;;;;;5011500;28;20073;-48
2023/06/14 11:23:23;;;;;;;2.42;1.80;;;26.20;32.90;;;;;;5002529;28;21337;-51
2023/06/14 11:25:51;;;;;;;1.75;1.55;;;26.20;33.80;;;;;;5007867;28;20057;-48
2023/06/14 11:28:19;;;;;;;2.38;1.65;;;26.20;32.70;;;;;;5009869;28;20757;-47
2023/06/14 11:30:46;;;;;;;1.52;1.42;;;26.30;32.70;;;;;;5010701;28;20034;-50
2023/06/14 11:33:18;;;;;;;2.35;1.40;;;26.30;32.60;;;;;;5005832;28;20392;-47
2023/06/14 11:35:45;;;;;;;1.35;1.27;;;26.30;32.60;;;;;;5002419;28;20096;-46
2023/06/14 11:38:12;;;;;;;1.42;1.33;;;26.30;32.60;;;;;;5003670;28;20038;-50
2023/06/14 11:40:39;;;;;;;4.10;1.55;;;26.30;32.40;;;;;;5006595;28;20093;-50
2023/06/14 11:43:06;;;;;;;2.10;1.40;;;26.40;32.40;;;;;;5004888;28;20054;-49
2023/06/14 11:45:33;;;;;;;1.60;1.45;;;26.40;32.20;;;;;;5009404;28;20038;-49
2023/06/14 11:47:59;;;;;;;3.67;1.60;;;26.50;31.90;;;;;;5010227;28;20045;-50
2023/06/14 11:50:28;;;;;;;1.65;1.13;;;26.50;31.80;;;;;;5009955;28;20128;-49
2023/06/14 11:52:55;;;;;;;2.20;1.52;;;26.50;32.10;;;;;;5003170;28;20132;-48
2023/06/14 11:55:23;;;;;;;1.75;1.45;;;26.50;32.30;;;;;;5005107;28;20096;-51
2023/06/14 11:57:50;;;;;;;3.22;1.60;;;26.60;32.20;;;;;;5009702;28;20060;-50
2023/06/14 12:00:17;;;;;;;2.40;1.55;;;26.60;32.20;;;;;;5008457;28;20047;-50
2023/06/14 12:02:55;;;;;;;2.55;1.52;;;26.70;32.10;;;;;;5003472;28;20069;-49
2023/06/14 12:05:22;;;;;;;1.25;1.15;;;26.70;32.10;;;;;;5004709;28;20070;-48
2023/06/14 12:07:50;;;;;;;2.92;1.27;;;26.80;32.20;;;;;;5001125;28;20055;-50
2023/06/14 12:10:17;;;;;;;2.05;1.35;;;26.80;32.10;;;;;;5001846;28;20093;-51
2023/06/14 12:12:44;;;;;;;3.17;1.65;;;26.90;32.10;;;;;;5003655;28;20045;-50
2023/06/14 12:15:11;;;;;;;3.45;1.17;;;27.00;31.70;;;;;;5001664;28;20037;-48
2023/06/14 12:17:43;;;;;;;2.30;1.10;;;27.00;32.10;;;;;;4999622;28;20566;-51
2023/06/14 12:20:13;;;;;;;1.27;1.17;;;27.10;31.90;;;;;;5000992;28;20124;-52
2023/06/14 12:22:50;;;;;;;1.13;1.05;;;27.20;31.80;;;;;;5001250;28;20056;-51
2023/06/14 12:25:26;;;;;;;2.13;0.90;;;27.20;31.50;;;;;;5003453;28;20058;-51
2023/06/14 12:27:54;;;;;;;3.47;1.45;;;27.30;31.50;;;;;;5000595;28;20042;-51
2023/06/14 12:30:21;;;;;;;3.55;1.30;;;27.40;31.50;;;;;;5004897;28;20561;-51
2023/06/14 12:32:48;;;;;;;2.38;1.08;;;27.50;31.50;;;;;;5002353;28;20375;-51
2023/06/14 12:35:15;;;;;;;1.25;0.90;;;27.50;31.30;;;;;;5009459;28;20066;-51
2023/06/14 12:37:42;;;;;;;1.45;1.15;;;27.60;31.00;;;;;;5011900;28;20061;-50
2023/06/14 12:40:12;;;;;;;1.88;1.20;;;27.70;30.70;;;;;;5006492;28;20035;-51
2023/06/14 12:42:38;;;;;;;1.27;1.13;;;27.70;30.20;;;;;;4999023;28;20482;-48
2023/06/14 12:45:05;;;;;;;1.60;0.73;;;27.80;30.10;;;;;;5000188;28;20038;-50
2023/06/14 12:47:32;;;;;;;2.00;0.88;;;27.90;30.00;;;;;;5002635;28;20054;-50
2023/06/14 12:49:59;;;;;;;1.35;1.10;;;27.90;30.00;;;;;;5000395;28;20073;-48
2023/06/14 12:52:27;;;;;;;2.13;1.20;;;28.00;30.40;;;;;;5000654;28;20046;-48
2023/06/14 12:54:53;;;;;;;1.30;0.80;;;28.10;30.10;;;;;;5002022;28;20576;-51
2023/06/14 12:57:23;;;;;;;1.23;1.13;;;28.10;30.10;;;;;;5006056;28;20062;-50